createdAt,value
2022-09-04T00:02:34.629Z,77.08
2022-09-04T00:05:07.444Z,77.61
2022-09-04T00:07:57.338Z,77.35
2022-09-04T00:10:37.271Z,77.41
2022-09-04T00:13:41.987Z,77.53
2022-09-04T00:16:21.479Z,77.25
2022-09-04T00:19:03.390Z,77.36
2022-09-04T00:21:50.430Z,77.79
2022-09-04T00:24:25.175Z,77.60
2022-09-04T00:27:01.611Z,77.73
2022-09-04T00:29:44.424Z,77.60
2022-09-04T00:32:30.201Z,77.67
2022-09-04T00:35:07.491Z,77.98
2022-09-04T00:37:43.772Z,77.79
2022-09-04T00:40:19.602Z,77.90
2022-09-04T00:43:08.635Z,77.34
2022-09-04T00:46:14.522Z,77.74
2022-09-04T00:49:03.927Z,78.34
2022-09-04T00:51:53.313Z,78.47
2022-09-04T00:54:41.595Z,78.34
2022-09-04T00:57:47.199Z,78.42
2022-09-04T01:00:20.526Z,78.57
2022-09-04T01:03:07.487Z,78.98
2022-09-04T01:05:55.969Z,79.22
2022-09-04T01:08:50.334Z,79.06
2022-09-04T01:11:29.608Z,79.31
2022-09-04T01:14:10.899Z,79.34
2022-09-04T01:16:42.079Z,79.26
2022-09-04T01:19:37.998Z,79.13
2022-09-04T01:22:26.762Z,79.05
2022-09-04T01:25:05.724Z,79.61
2022-09-04T01:28:07.148Z,79.65
2022-09-04T01:30:59.614Z,79.73
2022-09-04T01:33:36.173Z,79.86
2022-09-04T01:36:38.540Z,80.25
2022-09-04T01:39:06.283Z,80.03
2022-09-04T01:41:45.671Z,80.07
2022-09-04T01:44:14.207Z,80.28
2022-09-04T01:47:03.206Z,80.46
2022-09-04T01:49:39.322Z,80.43
2022-09-04T01:52:36.677Z,80.63
2022-09-04T01:55:38.987Z,80.96
2022-09-04T01:58:19.068Z,80.98
2022-09-04T02:01:14.139Z,81.39
2022-09-04T02:04:12.588Z,81.66
2022-09-04T02:07:33.843Z,81.80
2022-09-04T02:10:29.391Z,81.70
2022-09-04T02:13:29.438Z,82.00
2022-09-04T02:16:20.595Z,81.71
2022-09-04T02:19:03.076Z,81.84
2022-09-04T02:21:44.706Z,81.81
2022-09-04T02:24:41.409Z,81.82
2022-09-04T02:27:26.607Z,81.72
2022-09-04T02:30:01.502Z,81.14
2022-09-04T02:32:45.430Z,80.68
2022-09-04T02:35:13.034Z,80.99
2022-09-04T02:37:49.534Z,81.32
2022-09-04T02:40:29.069Z,81.55
2022-09-04T02:43:16.102Z,81.67
2022-09-04T02:46:05.713Z,81.66
2022-09-04T02:48:41.788Z,82.19
2022-09-04T02:51:45.666Z,82.56
2022-09-04T02:54:22.151Z,83.22
2022-09-04T02:57:17.633Z,83.27
2022-09-04T03:00:15.078Z,83.76
2022-09-04T03:02:55.267Z,83.94
2022-09-04T03:05:54.642Z,83.92
2022-09-04T03:08:42.846Z,83.73
2022-09-04T03:11:31.067Z,83.84
2022-09-04T03:14:28.591Z,83.88
2022-09-04T03:17:21.258Z,83.82
2022-09-04T03:20:00.299Z,83.95
2022-09-04T03:22:39.677Z,84.23
2022-09-04T03:25:30.844Z,84.31
2022-09-04T03:27:58.749Z,84.32
2022-09-04T03:30:27.608Z,84.19
2022-09-04T03:33:07.568Z,84.19
2022-09-04T03:36:00.532Z,84.31
2022-09-04T03:38:47.693Z,84.65
2022-09-04T03:41:24.201Z,84.39
2022-09-04T03:43:54.829Z,84.03
2022-09-04T03:47:16.582Z,84.13
2022-09-04T03:49:52.803Z,84.38
2022-09-04T03:52:38.930Z,84.46
2022-09-04T03:55:12.313Z,84.30
2022-09-04T03:58:01.158Z,84.77
2022-09-04T04:00:50.790Z,85.29
2022-09-04T04:03:36.796Z,85.48
2022-09-04T04:06:27.150Z,85.36
2022-09-04T04:09:22.540Z,85.32
2022-09-04T04:12:14.420Z,85.41
2022-09-04T04:14:59.381Z,85.44
2022-09-04T04:17:50.357Z,85.06
2022-09-04T04:21:00.049Z,84.83
2022-09-04T04:23:57.600Z,84.65
2022-09-04T04:26:54.919Z,84.39
2022-09-04T04:29:51.863Z,84.09
2022-09-04T04:32:59.416Z,84.14
2022-09-04T04:35:37.607Z,84.26
2022-09-04T04:38:32.751Z,84.12
2022-09-04T04:41:30.177Z,83.90
2022-09-04T04:44:43.734Z,84.00
2022-09-04T04:47:42.161Z,83.44
2022-09-04T04:50:28.947Z,83.57
2022-09-04T04:53:45.881Z,83.70
2022-09-04T04:56:51.135Z,83.91
2022-09-04T04:59:40.094Z,83.44
2022-09-04T05:02:35.627Z,81.46
2022-09-04T05:05:17.600Z,78.33
2022-09-04T05:08:08.574Z,76.44
2022-09-04T05:10:43.566Z,75.21
2022-09-04T05:13:23.250Z,74.80
2022-09-04T05:16:21.817Z,75.09
2022-09-04T05:19:18.349Z,75.67
2022-09-04T05:22:16.546Z,76.39
2022-09-04T05:25:13.575Z,77.04
2022-09-04T05:27:53.504Z,77.15
2022-09-04T05:30:51.007Z,77.63
2022-09-04T05:33:51.092Z,76.95
2022-09-04T05:36:29.703Z,76.97
2022-09-04T05:39:10.716Z,77.04
2022-09-04T05:42:06.375Z,77.28
2022-09-04T05:45:04.232Z,77.64
2022-09-04T05:47:52.304Z,77.57
2022-09-04T05:50:26.381Z,77.47
2022-09-04T05:53:18.873Z,77.66
2022-09-04T05:55:58.882Z,77.08
2022-09-04T05:59:09.574Z,75.77
2022-09-04T06:02:06.169Z,75.18
2022-09-04T06:05:10.522Z,75.12
2022-09-04T06:08:28.340Z,75.15
2022-09-04T06:11:24.258Z,75.16
2022-09-04T06:14:19.962Z,74.67
2022-09-04T06:16:53.230Z,74.27
2022-09-04T06:19:23.481Z,73.96
2022-09-04T06:22:03.365Z,73.91
2022-09-04T06:24:56.940Z,73.83
2022-09-04T06:27:35.453Z,73.32
2022-09-04T06:30:09.027Z,72.72
2022-09-04T06:32:55.317Z,71.58
2022-09-04T06:35:54.093Z,70.96
2022-09-04T06:38:45.423Z,70.37
2022-09-04T06:41:40.501Z,70.55
2022-09-04T06:44:29.511Z,70.22
2022-09-04T06:47:20.491Z,69.92
2022-09-04T06:50:14.652Z,69.65
2022-09-04T06:53:18.995Z,69.24
2022-09-04T06:56:05.746Z,69.55
2022-09-04T06:59:08.956Z,69.21
2022-09-04T07:02:13.715Z,68.94
2022-09-04T07:05:16.435Z,68.65
2022-09-04T07:08:02.591Z,68.23
2022-09-04T07:10:45.874Z,68.06
2022-09-04T07:13:37.757Z,67.27
2022-09-04T07:16:31.179Z,66.11
2022-09-04T07:19:32.927Z,64.67
2022-09-04T07:22:22.098Z,63.22
2022-09-04T07:25:23.324Z,61.93
2022-09-04T07:28:06.413Z,61.06
2022-09-04T07:30:45.553Z,60.36
2022-09-04T07:33:46.038Z,59.88
2022-09-04T07:36:43.586Z,59.87
2022-09-04T07:39:20.511Z,57.93
2022-09-04T07:42:19.010Z,52.79
2022-09-04T07:45:22.618Z,45.43
2022-09-04T07:48:04.016Z,40.06
2022-09-04T07:50:58.166Z,36.43
2022-09-04T07:53:40.330Z,33.08
2022-09-04T07:56:35.531Z,29.92
2022-09-04T07:59:40.537Z,29.00
2022-09-04T08:02:26.575Z,27.45
2022-09-04T08:04:58.703Z,26.11
2022-09-04T08:08:15.825Z,25.22
2022-09-04T08:10:59.361Z,23.98
2022-09-04T08:13:51.893Z,23.50
2022-09-04T08:16:31.263Z,22.31
2022-09-04T08:19:10.522Z,22.07
2022-09-04T08:21:47.103Z,21.07
2022-09-04T08:24:52.911Z,21.17
2022-09-04T08:28:00.097Z,21.88
2022-09-04T08:30:39.210Z,21.18
2022-09-04T08:33:40.847Z,20.41
2022-09-04T08:36:37.544Z,20.20
2022-09-04T08:39:23.559Z,20.21
2022-09-04T08:42:23.471Z,20.62
2022-09-04T08:45:22.258Z,20.53
2022-09-04T08:48:11.356Z,20.07
2022-09-04T08:51:34.306Z,19.83
2022-09-04T08:54:16.857Z,19.49
2022-09-04T08:56:53.804Z,19.70
2022-09-04T08:59:42.526Z,19.29
2022-09-04T09:02:37.937Z,19.14
2022-09-04T09:05:25.857Z,19.61
2022-09-04T09:08:24.997Z,20.19
2022-09-04T09:11:13.605Z,20.41
2022-09-04T09:14:19.323Z,19.28
2022-09-04T09:17:12.573Z,19.55
2022-09-04T09:19:43.447Z,20.49
2022-09-04T09:22:36.335Z,20.62
2022-09-04T09:25:21.143Z,20.47
2022-09-04T09:28:21.210Z,20.85
2022-09-04T09:30:58.950Z,20.08
2022-09-04T09:33:32.517Z,19.51
2022-09-04T09:36:06.564Z,19.33
2022-09-04T09:38:53.197Z,19.23
2022-09-04T09:41:51.761Z,19.25
2022-09-04T09:44:46.877Z,19.05
2022-09-04T09:47:42.122Z,18.82
2022-09-04T09:50:12.607Z,19.31
2022-09-04T09:53:17.070Z,19.58
2022-09-04T09:55:50.844Z,19.69
2022-09-04T09:58:48.669Z,20.54
2022-09-04T10:01:25.204Z,21.55
2022-09-04T10:04:22.068Z,21.27
2022-09-04T10:07:21.274Z,21.06
2022-09-04T10:10:12.622Z,20.11
2022-09-04T10:12:55.339Z,19.83
2022-09-04T10:16:01.241Z,19.95
2022-09-04T10:19:20.120Z,20.97
2022-09-04T10:21:51.469Z,21.88
2022-09-04T10:24:38.693Z,23.67
2022-09-04T10:27:09.550Z,23.69
2022-09-04T10:29:53.924Z,24.56
2022-09-04T10:32:31.846Z,25.60
2022-09-04T10:35:22.335Z,26.40
2022-09-04T10:38:19.140Z,27.04
2022-09-04T10:41:22.766Z,27.84
2022-09-04T10:44:08.773Z,27.20
2022-09-04T10:47:02.711Z,28.62
2022-09-04T10:49:55.407Z,27.93
2022-09-04T10:52:48.564Z,28.23
2022-09-04T10:55:59.063Z,28.47
2022-09-04T10:58:40.897Z,28.51
2022-09-04T11:01:27.854Z,28.52
2022-09-04T11:04:14.004Z,28.99
2022-09-04T11:07:01.253Z,28.96
2022-09-04T11:09:56.446Z,29.12
2022-09-04T11:12:45.897Z,28.94
2022-09-04T11:15:52.673Z,29.12
2022-09-04T11:18:34.180Z,29.59
2022-09-04T11:21:07.984Z,28.80
2022-09-04T11:24:17.316Z,28.60
2022-09-04T11:27:07.969Z,29.08
2022-09-04T11:29:56.708Z,28.44
2022-09-04T11:33:11.944Z,28.47
2022-09-04T11:36:07.253Z,28.53
2022-09-04T11:38:53.724Z,29.06
2022-09-04T11:42:20.457Z,28.71
2022-09-04T11:45:21.301Z,27.96
2022-09-04T11:48:15.920Z,27.95
2022-09-04T11:51:02.806Z,28.10
2022-09-04T11:54:21.022Z,28.52
2022-09-04T11:57:22.672Z,27.86
2022-09-04T11:59:59.508Z,27.56
2022-09-04T12:03:04.137Z,27.61
2022-09-04T12:06:05.122Z,27.29
2022-09-04T12:08:57.059Z,27.01
2022-09-04T12:11:48.860Z,26.43
2022-09-04T12:14:36.729Z,25.83
2022-09-04T12:17:31.981Z,26.69
2022-09-04T12:20:31.036Z,26.13
2022-09-04T12:23:19.047Z,26.47
2022-09-04T12:25:57.692Z,26.88
2022-09-04T12:28:57.680Z,27.02
2022-09-04T12:31:51.407Z,26.74
2022-09-04T12:34:55.159Z,26.77
2022-09-04T12:37:54.115Z,26.49
2022-09-04T12:40:23.024Z,26.41
2022-09-04T12:43:16.640Z,25.95
2022-09-04T12:46:14.449Z,25.18
2022-09-04T12:48:53.902Z,25.38
2022-09-04T12:51:26.581Z,25.83
2022-09-04T12:54:25.005Z,26.22
2022-09-04T12:57:11.711Z,26.77
2022-09-04T13:00:04.812Z,27.68
2022-09-04T13:02:57.437Z,28.30
2022-09-04T13:05:31.948Z,28.30
2022-09-04T13:08:06.893Z,28.74
2022-09-04T13:10:52.543Z,29.02
2022-09-04T13:13:48.001Z,29.98
2022-09-04T13:16:36.937Z,29.84
2022-09-04T13:19:22.833Z,29.82
2022-09-04T13:22:09.217Z,29.73
2022-09-04T13:25:25.658Z,29.94
2022-09-04T13:27:57.525Z,30.16
2022-09-04T13:30:27.618Z,30.46
2022-09-04T13:33:26.260Z,30.61
2022-09-04T13:36:11.233Z,31.07
2022-09-04T13:38:45.282Z,30.38
2022-09-04T13:41:19.085Z,29.07
2022-09-04T13:44:08.009Z,28.85
2022-09-04T13:46:46.779Z,28.78
2022-09-04T13:49:21.350Z,29.29
2022-09-04T13:52:00.438Z,29.91
2022-09-04T13:54:42.554Z,30.58
2022-09-04T13:57:27.996Z,30.61
2022-09-04T14:00:07.340Z,31.13
2022-09-04T14:02:36.998Z,31.16
2022-09-04T14:05:16.681Z,31.12
2022-09-04T14:07:49.305Z,30.45
2022-09-04T14:10:41.351Z,30.39
2022-09-04T14:13:55.598Z,30.00
2022-09-04T14:16:24.055Z,30.40
2022-09-04T14:19:20.675Z,30.84
2022-09-04T14:21:55.359Z,30.49
2022-09-04T14:24:42.092Z,31.24
2022-09-04T14:27:16.002Z,31.32
2022-09-04T14:30:13.604Z,30.90
2022-09-04T14:33:06.246Z,30.99
2022-09-04T14:35:49.341Z,31.57
2022-09-04T14:38:41.317Z,31.65
2022-09-04T14:41:30.450Z,32.27
2022-09-04T14:44:16.603Z,32.00
2022-09-04T14:47:17.253Z,32.82
2022-09-04T14:49:48.506Z,32.81
2022-09-04T14:52:21.710Z,32.68
2022-09-04T14:54:55.691Z,33.35
2022-09-04T14:57:41.732Z,33.12
2022-09-04T15:00:20.203Z,33.27
2022-09-04T15:02:51.203Z,33.01
2022-09-04T15:05:27.709Z,33.05
2022-09-04T15:08:03.818Z,33.02
2022-09-04T15:10:50.025Z,33.35
2022-09-04T15:13:35.358Z,33.72
2022-09-04T15:16:19.431Z,33.72
2022-09-04T15:19:05.905Z,34.33
2022-09-04T15:21:58.932Z,34.37
2022-09-04T15:24:32.594Z,34.89
2022-09-04T15:27:23.680Z,34.68
2022-09-04T15:29:54.424Z,34.00
2022-09-04T15:32:28.548Z,34.01
2022-09-04T15:35:14.301Z,34.26
2022-09-04T15:37:48.732Z,34.35
2022-09-04T15:40:31.974Z,34.48
2022-09-04T15:43:12.261Z,34.76
2022-09-04T15:45:54.083Z,34.41
2022-09-04T15:48:26.977Z,34.41
2022-09-04T15:51:04.466Z,35.13
2022-09-04T15:53:38.838Z,35.19
2022-09-04T15:56:34.951Z,35.63
2022-09-04T15:59:08.932Z,36.17
2022-09-04T16:01:40.180Z,36.40
2022-09-04T16:04:18.355Z,36.72
2022-09-04T16:07:28.874Z,37.38
2022-09-04T16:10:02.936Z,37.55
2022-09-04T16:12:48.660Z,37.71
2022-09-04T16:15:44.925Z,38.07
2022-09-04T16:18:40.264Z,38.52
2022-09-04T16:21:41.050Z,38.43
2022-09-04T16:24:25.731Z,39.04
2022-09-04T16:26:55.840Z,39.71
2022-09-04T16:29:36.755Z,39.92
2022-09-04T16:32:09.767Z,40.11
2022-09-04T16:34:55.980Z,40.20
2022-09-04T16:37:32.617Z,40.80
2022-09-04T16:40:48.740Z,40.65
2022-09-04T16:43:28.849Z,41.14
2022-09-04T16:46:28.150Z,41.36
2022-09-04T16:49:07.786Z,41.23
2022-09-04T16:51:43.624Z,41.23
2022-09-04T16:54:37.310Z,41.37
2022-09-04T16:57:15.835Z,41.79
2022-09-04T16:59:57.245Z,41.87
2022-09-04T17:02:36.132Z,42.28
2022-09-04T17:05:28.390Z,42.49
2022-09-04T17:08:12.189Z,42.33
2022-09-04T17:11:05.529Z,42.88
2022-09-04T17:13:50.096Z,42.66
2022-09-04T17:16:38.212Z,42.81
2022-09-04T17:19:14.212Z,42.76
2022-09-04T17:28:55.846Z,42.90
2022-09-04T17:28:57.199Z,43.17
2022-09-04T17:29:09.738Z,43.65
2022-09-04T17:31:43.940Z,43.74
2022-09-04T17:40:32.144Z,43.47
2022-09-04T17:40:49.125Z,43.58
2022-09-04T17:41:40.705Z,44.01
2022-09-04T17:44:05.885Z,43.92
2022-09-04T17:46:44.811Z,43.89
2022-09-04T17:49:34.368Z,44.18
2022-09-04T17:52:08.922Z,44.67
2022-09-04T17:54:49.063Z,44.86
2022-09-04T17:57:28.581Z,44.62
2022-09-04T18:00:07.810Z,44.81
2022-09-04T18:02:56.278Z,45.32
2022-09-04T18:05:49.162Z,45.71
2022-09-04T18:08:55.937Z,46.03
2022-09-04T18:11:28.952Z,46.05
2022-09-04T18:14:04.225Z,46.31
2022-09-04T18:16:47.665Z,46.65
2022-09-04T18:19:46.898Z,46.57
2022-09-04T18:22:44.875Z,46.92
2022-09-04T18:25:24.803Z,47.52
2022-09-04T18:28:17.893Z,48.18
2022-09-04T18:37:12.507Z,48.46
2022-09-04T18:37:18.588Z,48.51
2022-09-04T18:37:44.186Z,48.90
2022-09-04T18:40:50.414Z,49.19
2022-09-04T18:50:23.675Z,49.21
2022-09-04T18:50:40.776Z,49.58
2022-09-04T18:50:51.228Z,49.62
2022-09-04T18:52:23.198Z,49.32
2022-09-04T18:54:58.938Z,49.46
2022-09-04T18:57:49.005Z,49.62
2022-09-04T19:00:39.907Z,49.54
2022-09-04T19:03:23.036Z,49.91
2022-09-04T19:05:56.747Z,50.12
2022-09-04T19:08:34.074Z,50.19
2022-09-04T19:11:29.403Z,50.50
2022-09-04T19:14:15.598Z,50.52
2022-09-04T19:16:52.569Z,50.59
2022-09-04T19:19:45.578Z,50.67
2022-09-04T19:22:36.155Z,50.69
2022-09-04T19:25:13.436Z,50.52
2022-09-04T19:28:21.888Z,50.43
2022-09-04T19:30:53.749Z,50.21
2022-09-04T19:33:31.629Z,50.14
2022-09-04T19:36:14.071Z,50.09
2022-09-04T19:44:44.504Z,50.10
2022-09-04T19:46:03.556Z,49.97
2022-09-04T19:46:26.495Z,49.96
2022-09-04T19:48:11.606Z,49.60
2022-09-04T19:53:24.398Z,49.40
2022-09-04T19:53:49.260Z,49.37
2022-09-04T19:56:28.592Z,49.74
2022-09-04T19:59:11.608Z,49.67
2022-09-04T20:01:52.012Z,49.98
2022-09-04T20:04:47.512Z,49.72
2022-09-04T20:07:42.694Z,50.16
2022-09-04T20:10:22.896Z,50.01
2022-09-04T20:13:11.963Z,50.03
2022-09-04T20:15:50.942Z,49.89
2022-09-04T20:18:28.239Z,49.78
2022-09-04T20:21:01.258Z,49.95
2022-09-04T20:23:42.615Z,49.96
2022-09-04T20:26:25.552Z,50.14
2022-09-04T20:29:10.827Z,50.34
2022-09-04T20:32:27.439Z,50.38
2022-09-04T20:35:20.500Z,50.62
2022-09-04T20:38:22.987Z,50.96
2022-09-04T20:41:22.478Z,50.99
2022-09-04T20:44:19.638Z,50.86
2022-09-04T20:52:45.880Z,50.96
2022-09-04T20:52:57.622Z,50.71
2022-09-04T20:53:07.449Z,50.80
2022-09-04T20:56:10.752Z,50.92
2022-09-04T21:03:07.522Z,50.90
2022-09-04T21:03:18.412Z,50.91
2022-09-04T21:05:42.512Z,51.19
2022-09-04T21:08:27.255Z,51.26
2022-09-04T21:11:14.878Z,51.42
2022-09-04T21:14:06.848Z,51.55
2022-09-04T21:16:49.773Z,51.49
2022-09-04T21:19:47.699Z,51.39
2022-09-04T21:22:37.015Z,51.21
2022-09-04T21:25:04.877Z,51.42
2022-09-04T21:27:32.483Z,51.20
2022-09-04T21:30:14.760Z,51.35
2022-09-04T21:32:53.885Z,50.88
2022-09-04T21:35:37.388Z,50.75
2022-09-04T21:38:31.068Z,50.71
2022-09-04T21:41:16.551Z,50.41
2022-09-04T21:43:53.169Z,50.31
2022-09-04T21:46:33.010Z,50.06
2022-09-04T21:49:26.783Z,49.76
2022-09-04T21:52:32.001Z,49.71
2022-09-04T21:57:13.513Z,49.79
2022-09-04T22:02:36.512Z,49.42
2022-09-04T22:02:43.808Z,49.60
2022-09-04T22:04:38.474Z,49.69
2022-09-04T22:11:00.944Z,50.04
2022-09-04T22:13:31.462Z,49.96
2022-09-04T22:13:42.494Z,49.90
2022-09-04T22:16:13.506Z,49.82
2022-09-04T22:19:16.463Z,49.92
2022-09-04T22:22:03.707Z,49.89
2022-09-04T22:24:41.566Z,49.63
2022-09-04T22:27:30.570Z,49.60
2022-09-04T22:30:06.044Z,49.32
2022-09-04T22:33:10.741Z,49.64
2022-09-04T22:36:16.875Z,49.86
2022-09-04T22:39:30.959Z,50.05
2022-09-04T22:42:05.535Z,50.22
2022-09-04T22:44:35.997Z,50.24
2022-09-04T22:47:27.347Z,50.50
2022-09-04T22:50:29.040Z,50.16
2022-09-04T22:53:41.418Z,49.94
2022-09-04T22:56:30.383Z,50.42
2022-09-04T22:59:35.766Z,50.65
2022-09-04T23:02:14.104Z,50.86
2022-09-04T23:05:06.778Z,50.80
2022-09-04T23:13:54.483Z,51.40
2022-09-04T23:14:00.193Z,51.43
2022-09-04T23:15:08.077Z,51.76
2022-09-04T23:20:22.456Z,52.11
2022-09-04T23:26:35.344Z,52.55
2022-09-04T23:26:49.395Z,52.66
2022-09-04T23:27:40.081Z,53.13
2022-09-04T23:30:25.815Z,53.42
2022-09-04T23:33:27.846Z,53.55
2022-09-04T23:37:07.207Z,53.64
2022-09-04T23:40:31.905Z,53.91
2022-09-04T23:43:29.632Z,54.35
2022-09-04T23:46:35.951Z,54.29
2022-09-04T23:49:49.558Z,54.74
2022-09-04T23:52:48.497Z,55.21
2022-09-04T23:55:49.911Z,55.67
2022-09-04T23:59:14.254Z,55.95
